CBM weather

Columbus Air Force Base
Columbus, Mississippi, United States

Public forecast

Using degrees Fahrenheit for public forecast. Weather courtesy of forecast.io.

METAR (pilot weather report)

Retrieved 2019/09/22 16:56 UTC (14 minutes ago):

KCBM 221656Z AUTO 22010KT 10SM FEW070 30/16 A3015 RMK AO2 SLP211 T03000164

TAF (pilot weather forecast)

Retrieved 2019/09/22 15:09 UTC (2 hours ago):

TAF TAF KCBM 221500Z 2215/2321 VRB06KT 9999 FEW050 QNH2995INS TX30/2221Z TN15/2310Z